METAR Formatted Surface Weather Observation
Issued by NWS Corpus Christi, TX

Home | Current Version | Previous Version | Text Only | Print | Product List | Glossary On
Versions: 1 2 3 4 5 6 7 8 9 10 11 12 13 14 15 16 17 18 19 20 21
000
SAUS44 KCRP 271752
MTRVCT
METAR KVCT 271751Z 12012KT 10SM FEW036 33/24 A2997 RMK AO2 SLP148
T03280244 10339 20239 58003



USA.gov is the U.S. government's official web portal to all federal, state and local government web resources and services.